Aérodrome :
LOGIN :

S'inscrire | Disclaimer

   EN    FR    IT 

 










Légende :    VFR   VFR Marginal   IFR   IFR Intensif   IFR Très Intensif
Visi : 
Plafond : 
>= 8 km
>= 3000ft
5 à 8 km
1000 à 3000 ft
1500m à 5 km
500 à 1000 ft
800 à 1500m
200 à 500 ft
< 800m
< 200 ft
Symboles :   Orages  Brouillard  Fortes neiges  Fortes précipitations  Vent > 20 kt
SIGMETs :   Divers  Orages  Givrage  Turbulence  Onde Orograph.  Cendres Volcan.







- Altitude de l'aérodrome : 776 ft
- Code IATA : RMS


ETAR - Ramstein Air Base

DERNIER METAR :
  • 272358Z 27007KT 9999 BKN043 16/15 A2986 RMK AO2A SLP108 60014 T01550153 10184 20155 402290155 53016 $

METARs EXPIRÉS :
  • 272258Z 25008KT 9999 SCT012 BKN130 16/16 A2985 RMK AO2A SLP105 T01630162 $
  • 272226Z 25009KT 9999 SCT015 BKN120 16/15 A2984 RMK AO2A SLP102 $
  • 272158Z 24010KT 9999 BKN060 17/16 A2982 RMK AO2A SLP094 T01660159 $

TAF TAF ETAR
Valide du 27 à 18h jusqu'au 29 à 00h UTC


271807Z 2718/2824 23012KT 8000 -SHRA BKN020 BKN150 QNH2980INS
TEMPO 2718/2720 23012G20KT
BECMG 2723/2724 25009KT 9999 NSW BKN020 QNH2983INS
BECMG 2802/2803 26006KT 9999 BKN020 BKN100 QNH2989INS
BECMG 2811/2812 26009KT 8000 -SHRA BKN030 QNH2990INS
TEMPO 2812/2815 25012G20KT TX23/2815Z TN14/2803Z
Pas de NOTAMs connus pour ce terrain.



MET'MAP, la Météo Aéronautique d'un coup d'oeil ! - Copyright ORBIFLY Décembre 2007 - Disclaimer

ORBIFLY MET'MAP TEAM :

Programmation & Développement : Alexandra Zaïnal
Conception & Développement : Baudouin d'Aumeries
Co-Programmation & Développement : Marc-Olivier Méhu
Soutien technique & logistique : Manuel Goepfert

Contact : metmap@orbifly.com




SOURCES & CREDITS :

   NOAA